createdAt,value
2024-02-29T00:00:41.047Z,101298.03
2024-02-29T00:03:10.265Z,101293.03
2024-02-29T00:05:40.490Z,101289.75
2024-02-29T00:08:07.355Z,101282.19
2024-02-29T00:10:33.897Z,101287.47
2024-02-29T00:13:00.894Z,101278.94
2024-02-29T00:15:28.415Z,101270.47
2024-02-29T00:17:55.031Z,101275.78
2024-02-29T00:20:21.661Z,101281.06
2024-02-29T00:22:48.223Z,101267.38
2024-02-29T00:25:14.797Z,101271.72
2024-02-29T00:27:41.706Z,101268.41
2024-02-29T00:30:08.890Z,101272.84
2024-02-29T00:32:36.357Z,101275.50
2024-02-29T00:35:03.066Z,101274.78
2024-02-29T00:37:29.747Z,101267.25
2024-02-29T00:39:56.588Z,101272.59
2024-02-29T00:42:23.191Z,101263.31
2024-02-29T00:44:49.749Z,101263.50
2024-02-29T00:47:16.305Z,101251.72
2024-02-29T00:49:42.852Z,101251.75
2024-02-29T00:52:09.622Z,101252.78
2024-02-29T00:54:36.337Z,101241.00
2024-02-29T00:57:03.465Z,101240.97
2024-02-29T00:59:30.060Z,101239.34
2024-02-29T01:01:57.223Z,101231.81
2024-02-29T01:04:24.410Z,101225.88
2024-02-29T01:06:51.124Z,101224.25
2024-02-29T01:09:19.058Z,101232.13
2024-02-29T01:11:45.666Z,101212.56
2024-02-29T01:14:12.197Z,101208.28
2024-02-29T01:16:38.749Z,101209.19
2024-02-29T01:19:07.398Z,101214.44
2024-02-29T01:21:34.085Z,101214.50
2024-02-29T01:24:00.694Z,101216.25
2024-02-29T01:26:27.451Z,101211.22
2024-02-29T01:28:54.026Z,101211.31
2024-02-29T01:31:21.305Z,101208.09
2024-02-29T01:33:48.227Z,101210.66
2024-02-29T01:36:15.080Z,101209.88
2024-02-29T01:38:41.657Z,101207.38
2024-02-29T01:41:08.206Z,101200.56
2024-02-29T01:43:35.797Z,101194.63
2024-02-29T01:46:11.174Z,101204.16
2024-02-29T01:48:37.886Z,101195.72
2024-02-29T01:51:05.434Z,101198.34
2024-02-29T01:53:34.680Z,101188.13
2024-02-29T01:56:01.514Z,101186.50
2024-02-29T01:58:28.591Z,101182.31
2024-02-29T02:00:55.250Z,101193.53
2024-02-29T02:03:22.319Z,101180.66
2024-02-29T02:05:48.838Z,101175.50
2024-02-29T02:08:16.608Z,101178.03
2024-02-29T02:10:43.280Z,101166.09
2024-02-29T02:13:09.893Z,101175.63
2024-02-29T02:15:36.471Z,101165.41
2024-02-29T02:18:04.200Z,101159.44
2024-02-29T02:20:30.801Z,101163.72
2024-02-29T02:22:57.309Z,101163.81
2024-02-29T02:25:23.919Z,101152.69
2024-02-29T02:27:50.473Z,101156.16
2024-02-29T02:30:17.087Z,101145.91
2024-02-29T02:32:43.771Z,101153.50
2024-02-29T02:35:10.299Z,101142.38
2024-02-29T02:37:37.978Z,101141.53
2024-02-29T02:40:06.389Z,101131.28
2024-02-29T02:42:33.541Z,101130.63
2024-02-29T02:45:00.267Z,101128.81
2024-02-29T02:47:26.926Z,101115.91
2024-02-29T02:49:53.413Z,101111.53
2024-02-29T02:52:19.979Z,101106.16
2024-02-29T02:54:46.621Z,101099.97
2024-02-29T02:57:13.183Z,101093.91
2024-02-29T02:59:39.649Z,101086.16
2024-02-29T03:02:06.239Z,101075.97
2024-02-29T03:04:32.793Z,101075.97
2024-02-29T03:06:59.351Z,101073.25
2024-02-29T03:09:25.945Z,101074.78
2024-02-29T03:11:52.754Z,101066.03
2024-02-29T03:14:19.340Z,101066.78
2024-02-29T03:16:45.848Z,101065.97
2024-02-29T03:19:12.495Z,101061.75
2024-02-29T03:21:39.258Z,101060.88
2024-02-29T03:24:06.018Z,101052.22
2024-02-29T03:26:32.536Z,101043.66
2024-02-29T03:28:59.827Z,101049.63
2024-02-29T03:31:26.432Z,101038.59
2024-02-29T03:33:52.970Z,101030.75
2024-02-29T03:36:19.702Z,101034.09
2024-02-29T03:38:46.584Z,101026.22
2024-02-29T03:41:13.120Z,101021.75
2024-02-29T03:43:39.602Z,101022.38
2024-02-29T03:46:06.290Z,101021.41
2024-02-29T03:48:32.990Z,101017.09
2024-02-29T03:51:00.144Z,101020.59
2024-02-29T03:53:26.880Z,101012.00
2024-02-29T03:55:53.669Z,101015.28
2024-02-29T03:58:21.100Z,101011.94
2024-02-29T04:00:49.940Z,101012.75
2024-02-29T04:03:16.828Z,101011.88
2024-02-29T04:05:43.363Z,101006.69
2024-02-29T04:08:12.978Z,101002.38
2024-02-29T04:10:43.102Z,101002.25
2024-02-29T04:13:09.920Z,100992.69
2024-02-29T04:15:36.628Z,100995.28
2024-02-29T04:18:05.212Z,100998.53
2024-02-29T04:20:31.868Z,100998.56
2024-02-29T04:22:58.346Z,100998.91
2024-02-29T04:25:25.082Z,100993.75
2024-02-29T04:27:52.075Z,100982.50
2024-02-29T04:30:19.211Z,100983.38
2024-02-29T04:32:45.897Z,100984.28
2024-02-29T04:35:12.596Z,100985.94
2024-02-29T04:37:39.929Z,100978.44
2024-02-29T04:40:10.947Z,100965.69
2024-02-29T04:42:38.585Z,100968.31
2024-02-29T04:45:05.981Z,100966.50
2024-02-29T04:47:32.957Z,100964.63
2024-02-29T04:49:59.764Z,100966.31
2024-02-29T04:52:26.557Z,100958.47
2024-02-29T04:54:53.261Z,100957.59
2024-02-29T04:57:19.947Z,100958.38
2024-02-29T04:59:46.500Z,100956.50
2024-02-29T05:02:13.100Z,100954.88
2024-02-29T05:04:39.713Z,100957.59
2024-02-29T05:07:06.257Z,100952.50
2024-02-29T05:09:33.490Z,100950.81
2024-02-29T05:12:00.327Z,100944.19
2024-02-29T05:14:27.021Z,100945.94
2024-02-29T05:16:53.532Z,100939.06
2024-02-29T05:19:20.243Z,100945.81
2024-02-29T05:21:48.238Z,100943.28
2024-02-29T05:24:15.011Z,100935.69
2024-02-29T05:26:41.512Z,100946.72
2024-02-29T05:29:08.020Z,100937.28
2024-02-29T05:31:34.667Z,100939.03
2024-02-29T05:34:01.285Z,100936.59
2024-02-29T05:36:27.895Z,100932.19
2024-02-29T05:38:55.679Z,100927.94
2024-02-29T05:41:22.273Z,100925.53
2024-02-29T05:43:49.138Z,100924.63
2024-02-29T05:46:16.554Z,100925.41
2024-02-29T05:48:43.184Z,100922.00
2024-02-29T05:51:09.843Z,100923.88
2024-02-29T05:53:36.396Z,100912.84
2024-02-29T05:56:03.907Z,100917.16
2024-02-29T05:58:32.236Z,100922.31
2024-02-29T06:00:59.133Z,100916.31
2024-02-29T06:03:25.897Z,100919.69
2024-02-29T06:05:52.494Z,100918.72
2024-02-29T06:08:19.063Z,100905.88
2024-02-29T06:10:48.159Z,100910.88
2024-02-29T06:13:15.507Z,100918.38
2024-02-29T06:15:43.245Z,100916.66
2024-02-29T06:18:11.969Z,100914.84
2024-02-29T06:20:38.701Z,100908.00
2024-02-29T06:23:05.604Z,100900.16
2024-02-29T06:25:32.725Z,100896.81
2024-02-29T06:27:59.355Z,100897.53
2024-02-29T06:30:32.856Z,100905.13
2024-02-29T06:32:59.980Z,100893.75
2024-02-29T06:35:26.667Z,100892.69
2024-02-29T06:37:53.431Z,100899.41
2024-02-29T06:40:22.986Z,100888.88
2024-02-29T06:42:50.128Z,100896.44
2024-02-29T06:45:17.871Z,100891.25
2024-02-29T06:47:45.237Z,100898.66
2024-02-29T06:50:13.153Z,100890.44
2024-02-29T06:52:41.610Z,100893.22
2024-02-29T06:55:09.176Z,100890.66
2024-02-29T06:57:39.125Z,100883.78
2024-02-29T07:00:07.316Z,100890.47
2024-02-29T07:02:34.387Z,100885.16
2024-02-29T07:05:01.031Z,100877.22
2024-02-29T07:07:28.094Z,100875.66
2024-02-29T07:09:55.448Z,100865.56
2024-02-29T07:12:22.361Z,100878.19
2024-02-29T07:14:49.331Z,100871.69
2024-02-29T07:17:16.066Z,100878.47
2024-02-29T07:19:42.624Z,100866.03
2024-02-29T07:22:09.261Z,100878.16
2024-02-29T07:24:35.897Z,100871.94
2024-02-29T07:27:02.932Z,100872.75
2024-02-29T07:29:30.162Z,100867.81
2024-02-29T07:31:56.824Z,100863.94
2024-02-29T07:34:23.431Z,100858.94
2024-02-29T07:36:50.448Z,100857.09
2024-02-29T07:39:17.775Z,100852.44
2024-02-29T07:41:44.544Z,100858.44
2024-02-29T07:44:11.307Z,100855.84
2024-02-29T07:46:38.083Z,100850.50
2024-02-29T07:49:04.721Z,100855.69
2024-02-29T07:51:31.388Z,100849.72
2024-02-29T07:53:58.031Z,100854.25
2024-02-29T07:56:27.018Z,100855.38
2024-02-29T07:58:54.496Z,100844.91
2024-02-29T08:01:21.166Z,100843.13
2024-02-29T08:03:48.265Z,100845.72
2024-02-29T08:06:15.158Z,100836.09
2024-02-29T08:08:42.583Z,100837.13
2024-02-29T08:11:09.266Z,100832.59
2024-02-29T08:13:36.133Z,100823.97
2024-02-29T08:16:03.124Z,100826.94
2024-02-29T08:18:29.917Z,100831.47
2024-02-29T08:20:56.473Z,100823.34
2024-02-29T08:23:23.037Z,100825.31
2024-02-29T08:25:49.650Z,100812.16
2024-02-29T08:28:16.843Z,100804.91
2024-02-29T08:30:43.678Z,100807.34
2024-02-29T08:33:10.354Z,100802.03
2024-02-29T08:35:36.954Z,100798.16
2024-02-29T08:38:03.880Z,100797.78
2024-02-29T08:40:30.532Z,100798.25
2024-02-29T08:42:57.346Z,100794.44
2024-02-29T08:45:24.115Z,100796.66
2024-02-29T08:47:51.226Z,100786.47
2024-02-29T08:50:17.841Z,100794.91
2024-02-29T08:52:44.807Z,100790.16
2024-02-29T08:55:11.481Z,100788.22
2024-02-29T08:57:38.283Z,100788.00
2024-02-29T09:00:06.488Z,100784.03
2024-02-29T09:02:33.179Z,100780.00
2024-02-29T09:04:59.722Z,100782.06
2024-02-29T09:07:27.398Z,100787.72
2024-02-29T09:09:54.157Z,100776.09
2024-02-29T09:12:20.807Z,100778.78
2024-02-29T09:14:47.755Z,100771.81
2024-02-29T09:17:14.637Z,100768.38
2024-02-29T09:19:41.440Z,100766.34
2024-02-29T09:22:08.087Z,100765.09
2024-02-29T09:24:34.767Z,100759.78
2024-02-29T09:27:01.425Z,100754.06
2024-02-29T09:29:29.886Z,100757.31
2024-02-29T09:31:57.737Z,100754.16
2024-02-29T09:34:24.319Z,100752.16
2024-02-29T09:36:51.786Z,100742.81
2024-02-29T09:39:18.423Z,100744.66
2024-02-29T09:42:02.304Z,100746.81
2024-02-29T09:44:32.770Z,100744.13
2024-02-29T09:46:59.741Z,100748.19
2024-02-29T09:49:27.907Z,100736.84
2024-02-29T09:51:54.571Z,100729.06
2024-02-29T09:54:22.714Z,100734.25
2024-02-29T09:56:49.332Z,100728.75
2024-02-29T09:59:17.692Z,100735.66
2024-02-29T10:01:53.437Z,100718.72
2024-02-29T10:04:20.485Z,100719.47
2024-02-29T10:06:47.575Z,100725.09
2024-02-29T10:09:14.219Z,100715.44
2024-02-29T10:11:42.146Z,100715.22
2024-02-29T10:14:22.707Z,100720.56
2024-02-29T10:16:52.786Z,100709.34
2024-02-29T10:19:21.018Z,100708.41
2024-02-29T10:21:47.763Z,100695.44
2024-02-29T10:24:14.599Z,100698.03
2024-02-29T10:26:41.378Z,100696.06
2024-02-29T10:29:12.181Z,100692.44
2024-02-29T10:31:39.909Z,100689.47
2024-02-29T10:34:11.344Z,100678.72
2024-02-29T10:36:38.035Z,100672.00
2024-02-29T10:39:04.847Z,100673.19
2024-02-29T10:41:33.121Z,100663.41
2024-02-29T10:44:03.930Z,100663.13
2024-02-29T10:46:31.548Z,100653.53
2024-02-29T10:49:06.561Z,100658.91
2024-02-29T10:51:54.909Z,100653.09
2024-02-29T10:54:27.454Z,100665.69
2024-02-29T10:56:55.094Z,100645.78
2024-02-29T10:59:21.776Z,100645.78
2024-02-29T11:01:49.527Z,100649.00
2024-02-29T11:04:16.718Z,100637.03
2024-02-29T11:06:49.511Z,100636.19
2024-02-29T11:09:18.474Z,100643.91
2024-02-29T11:11:46.909Z,100638.44
2024-02-29T11:14:16.590Z,100628.22
2024-02-29T11:16:44.810Z,100634.78
2024-02-29T11:19:16.008Z,100633.69
2024-02-29T11:21:43.078Z,100629.41
2024-02-29T11:24:16.131Z,100622.78
2024-02-29T11:26:43.659Z,100614.22
2024-02-29T11:29:16.246Z,100615.28
2024-02-29T11:31:48.414Z,100606.88
2024-02-29T11:34:19.076Z,100613.53
2024-02-29T11:36:46.487Z,100602.72
2024-02-29T11:39:15.535Z,100603.19
2024-02-29T11:41:42.278Z,100596.91
2024-02-29T11:44:08.839Z,100601.88
2024-02-29T11:46:35.440Z,100594.53
2024-02-29T11:49:02.182Z,100593.91
2024-02-29T11:51:29.641Z,100579.78
2024-02-29T11:53:56.537Z,100574.81
2024-02-29T11:56:23.284Z,100587.06
2024-02-29T11:58:51.197Z,100575.50
2024-02-29T12:01:17.899Z,100563.81
2024-02-29T12:03:46.242Z,100569.69
2024-02-29T12:06:13.088Z,100570.06
2024-02-29T12:08:39.876Z,100571.13
2024-02-29T12:11:07.516Z,100569.34
2024-02-29T12:13:34.449Z,100560.44
2024-02-29T12:16:01.238Z,100551.63
2024-02-29T12:18:27.864Z,100555.34
2024-02-29T12:20:54.601Z,100564.00
2024-02-29T12:23:21.389Z,100559.84
2024-02-29T12:25:48.048Z,100541.66
2024-02-29T12:28:15.123Z,100544.16
2024-02-29T12:30:42.728Z,100530.84
2024-02-29T12:33:14.290Z,100539.91
2024-02-29T12:35:43.562Z,100523.84
2024-02-29T12:38:15.043Z,100522.63
2024-02-29T12:40:41.830Z,100529.63
2024-02-29T12:43:13.210Z,100517.06
2024-02-29T12:45:39.840Z,100514.72
2024-02-29T12:48:07.013Z,100514.72
2024-02-29T12:50:33.841Z,100506.50
2024-02-29T12:53:00.370Z,100501.59
2024-02-29T12:55:28.532Z,100491.63
2024-02-29T12:57:55.538Z,100480.09
2024-02-29T13:00:24.508Z,100480.44
2024-02-29T13:02:51.556Z,100473.16
2024-02-29T13:05:18.954Z,100473.88
2024-02-29T13:07:45.757Z,100461.38
2024-02-29T13:10:13.022Z,100453.97
2024-02-29T13:12:45.469Z,100449.75
2024-02-29T13:15:16.021Z,100447.69
2024-02-29T13:17:42.701Z,100446.06
2024-02-29T13:20:09.956Z,100441.69
2024-02-29T13:22:36.572Z,100432.81
2024-02-29T13:25:04.360Z,100428.84
2024-02-29T13:27:31.200Z,100422.53
2024-02-29T13:29:57.834Z,100426.88
2024-02-29T13:32:24.669Z,100417.25
2024-02-29T13:34:51.832Z,100415.88
2024-02-29T13:37:20.516Z,100409.81
2024-02-29T13:39:47.657Z,100404.19
2024-02-29T13:42:14.350Z,100405.72
2024-02-29T13:44:40.972Z,100392.69
2024-02-29T13:47:07.563Z,100401.41
2024-02-29T13:49:35.684Z,100382.69
2024-02-29T13:52:02.272Z,100381.44
2024-02-29T13:54:29.101Z,100380.47
2024-02-29T13:56:55.818Z,100372.38
2024-02-29T13:59:22.899Z,100367.28
2024-02-29T14:01:49.585Z,100365.59
2024-02-29T14:04:16.837Z,100361.19
2024-02-29T14:06:44.600Z,100352.66
2024-02-29T14:09:12.476Z,100348.13
2024-02-29T14:11:40.046Z,100345.66
2024-02-29T14:14:07.223Z,100339.75
2024-02-29T14:16:34.252Z,100336.97
2024-02-29T14:19:00.801Z,100328.88
2024-02-29T14:21:27.503Z,100331.06
2024-02-29T14:23:54.201Z,100329.69
2024-02-29T14:26:20.968Z,100321.56
2024-02-29T14:28:47.704Z,100320.72
2024-02-29T14:31:14.816Z,100318.13
2024-02-29T14:33:42.274Z,100317.44
2024-02-29T14:36:11.029Z,100316.72
2024-02-29T14:38:38.656Z,100305.31
2024-02-29T14:41:05.405Z,100296.63
2024-02-29T14:43:31.927Z,100299.78
2024-02-29T14:45:58.564Z,100306.25
2024-02-29T14:48:25.619Z,100294.00
2024-02-29T14:50:52.178Z,100285.59
2024-02-29T14:53:18.773Z,100286.72
2024-02-29T14:55:45.313Z,100284.22
2024-02-29T14:58:11.985Z,100277.09
2024-02-29T15:00:38.586Z,100278.44
2024-02-29T15:03:05.484Z,100277.22
2024-02-29T15:05:32.040Z,100276.66
2024-02-29T15:07:59.124Z,100279.56
2024-02-29T15:10:25.718Z,100263.72
2024-02-29T15:12:52.445Z,100261.38
2024-02-29T15:15:19.056Z,100252.44
2024-02-29T15:17:45.805Z,100251.22
2024-02-29T15:20:12.713Z,100246.78
2024-02-29T15:22:40.034Z,100249.53
2024-02-29T15:25:15.582Z,100250.38
2024-02-29T15:27:43.178Z,100247.72
2024-02-29T15:30:10.926Z,100245.28
2024-02-29T15:32:37.583Z,100237.81
2024-02-29T15:35:06.012Z,100241.00
2024-02-29T15:37:32.795Z,100239.06
2024-02-29T15:40:00.414Z,100227.34
2024-02-29T15:42:27.825Z,100230.25
2024-02-29T15:44:54.696Z,100224.19
2024-02-29T15:47:21.329Z,100232.72
2024-02-29T15:49:49.420Z,100217.19
2024-02-29T15:52:17.673Z,100221.16
2024-02-29T15:54:44.761Z,100224.59
2024-02-29T15:57:12.599Z,100210.00
2024-02-29T15:59:40.289Z,100205.72
2024-02-29T16:02:07.574Z,100209.75
2024-02-29T16:04:34.249Z,100212.22
2024-02-29T16:07:00.896Z,100210.41
2024-02-29T16:09:27.542Z,100214.13
2024-02-29T16:11:54.226Z,100207.09
2024-02-29T16:14:20.845Z,100193.47
2024-02-29T16:16:48.360Z,100198.47
2024-02-29T16:19:16.953Z,100190.88
2024-02-29T16:21:43.844Z,100184.13
2024-02-29T16:24:10.557Z,100185.06
2024-02-29T16:26:37.317Z,100197.59
2024-02-29T16:29:04.242Z,100180.13
2024-02-29T16:31:30.868Z,100176.84
2024-02-29T16:33:57.639Z,100182.88
2024-02-29T16:36:24.251Z,100171.59
2024-02-29T16:38:50.992Z,100179.44
2024-02-29T16:41:17.677Z,100181.06
2024-02-29T16:43:44.583Z,100165.00
2024-02-29T16:46:12.043Z,100159.19
2024-02-29T16:48:38.724Z,100153.97
2024-02-29T16:51:05.737Z,100161.81
2024-02-29T16:53:32.456Z,100162.94
2024-02-29T16:55:59.877Z,100148.47
2024-02-29T16:58:27.079Z,100160.44
2024-02-29T17:00:55.473Z,100150.13
2024-02-29T17:03:22.266Z,100150.53
2024-02-29T17:05:48.802Z,100155.75
2024-02-29T17:08:15.368Z,100138.97
2024-02-29T17:10:42.218Z,100138.28
2024-02-29T17:13:09.196Z,100138.56
2024-02-29T17:15:38.367Z,100133.31
2024-02-29T17:18:05.305Z,100135.88
2024-02-29T17:20:31.980Z,100136.56
2024-02-29T17:22:58.476Z,100133.53
2024-02-29T17:25:25.207Z,100131.06
2024-02-29T17:27:53.864Z,100140.69
2024-02-29T17:30:21.289Z,100129.69
2024-02-29T17:32:50.793Z,100136.00
2024-02-29T17:35:17.452Z,100131.00
2024-02-29T17:37:45.209Z,100119.06
2024-02-29T17:40:12.418Z,100127.72
2024-02-29T17:42:39.018Z,100117.28
2024-02-29T17:45:06.174Z,100129.38
2024-02-29T17:47:32.789Z,100116.59
2024-02-29T17:49:59.360Z,100112.03
2024-02-29T17:52:26.318Z,100119.63
2024-02-29T17:54:53.429Z,100115.22
2024-02-29T17:57:20.101Z,100119.47
2024-02-29T17:59:46.711Z,100118.28
2024-02-29T18:02:13.434Z,100110.44
2024-02-29T18:04:40.628Z,100106.03
2024-02-29T18:07:07.218Z,100106.75
2024-02-29T18:09:33.733Z,100114.94
2024-02-29T18:12:00.284Z,100110.44
2024-02-29T18:14:27.807Z,100118.00
2024-02-29T18:16:55.759Z,100106.88
2024-02-29T18:19:22.519Z,100105.06
2024-02-29T18:21:49.582Z,100094.22
2024-02-29T18:24:16.385Z,100099.72
2024-02-29T18:26:44.481Z,100100.28
2024-02-29T18:29:11.151Z,100094.22
2024-02-29T18:31:37.696Z,100100.16
2024-02-29T18:34:04.293Z,100096.81
2024-02-29T18:36:30.825Z,100087.34
2024-02-29T18:38:57.429Z,100084.72
2024-02-29T18:41:24.027Z,100079.78
2024-02-29T18:43:50.615Z,100080.75
2024-02-29T18:46:17.706Z,100083.91
2024-02-29T18:48:44.489Z,100074.44
2024-02-29T18:51:11.062Z,100067.41
2024-02-29T18:53:37.777Z,100073.19
2024-02-29T18:56:04.721Z,100064.56
2024-02-29T18:58:31.516Z,100061.22
2024-02-29T19:00:58.253Z,100069.91
2024-02-29T19:03:24.901Z,100067.28
2024-02-29T19:05:52.996Z,100061.38
2024-02-29T19:08:21.530Z,100058.63
2024-02-29T19:10:48.287Z,100065.47
2024-02-29T19:13:15.440Z,100069.06
2024-02-29T19:15:42.985Z,100065.88
2024-02-29T19:18:09.608Z,100056.69
2024-02-29T19:20:36.350Z,100060.25
2024-02-29T19:23:03.134Z,100050.06
2024-02-29T19:25:29.730Z,100061.34
2024-02-29T19:27:56.449Z,100051.88
2024-02-29T19:30:23.687Z,100051.72
2024-02-29T19:32:50.397Z,100056.25
2024-02-29T19:35:16.966Z,100048.16
2024-02-29T19:37:44.569Z,100043.19
2024-02-29T19:40:11.332Z,100055.28
2024-02-29T19:42:41.434Z,100050.75
2024-02-29T19:45:09.799Z,100053.38
2024-02-29T19:47:38.100Z,100047.34
2024-02-29T19:50:05.492Z,100043.19
2024-02-29T19:52:35.813Z,100046.78
2024-02-29T19:55:05.842Z,100045.09
2024-02-29T19:57:32.942Z,100044.84
2024-02-29T19:59:59.449Z,100041.81
2024-02-29T20:02:26.969Z,100035.91
2024-02-29T20:04:53.510Z,100039.34
2024-02-29T20:07:20.899Z,100030.94
2024-02-29T20:09:53.031Z,100022.28
2024-02-29T20:12:20.402Z,100029.03
2024-02-29T20:14:49.682Z,100032.72
2024-02-29T20:17:16.226Z,100017.19
2024-02-29T20:19:42.819Z,100025.03
2024-02-29T20:22:09.733Z,100018.72
2024-02-29T20:24:36.357Z,100021.47
2024-02-29T20:27:04.160Z,100021.59
2024-02-29T20:29:30.713Z,100017.88
2024-02-29T20:31:57.433Z,100016.78
2024-02-29T20:34:24.014Z,100015.94
2024-02-29T20:36:52.027Z,100015.25
2024-02-29T20:39:19.540Z,100013.34
2024-02-29T20:41:46.620Z,100015.13
2024-02-29T20:44:13.602Z,99997.28
2024-02-29T20:46:40.365Z,100004.94
2024-02-29T20:49:07.354Z,99996.84
2024-02-29T20:51:34.075Z,100002.97
2024-02-29T20:54:00.705Z,100004.91
2024-02-29T20:56:27.393Z,99995.38
2024-02-29T20:58:53.889Z,99995.94
2024-02-29T21:01:20.529Z,100002.50
2024-02-29T21:03:48.822Z,99999.06
2024-02-29T21:06:16.551Z,99991.63
2024-02-29T21:08:43.096Z,99994.06
2024-02-29T21:11:09.826Z,99992.63
2024-02-29T21:13:37.404Z,99995.91
2024-02-29T21:16:04.345Z,99993.69
2024-02-29T21:18:30.881Z,99987.31
2024-02-29T21:20:57.550Z,99989.47
2024-02-29T21:23:24.215Z,99995.38
2024-02-29T21:25:50.789Z,99987.34
2024-02-29T21:28:17.449Z,99981.34
2024-02-29T21:30:44.399Z,99984.22
2024-02-29T21:33:11.013Z,99977.91
2024-02-29T21:35:37.718Z,99979.81
2024-02-29T21:38:04.953Z,99980.88
2024-02-29T21:40:31.768Z,99969.88
2024-02-29T21:42:58.590Z,99972.25
2024-02-29T21:45:25.173Z,99961.47
2024-02-29T21:47:51.727Z,99955.97
2024-02-29T21:50:19.118Z,99961.66
2024-02-29T21:52:45.656Z,99959.16
2024-02-29T21:55:12.250Z,99956.09
2024-02-29T21:57:38.922Z,99957.91
2024-02-29T22:00:06.185Z,99952.41
2024-02-29T22:02:32.742Z,99949.97
2024-02-29T22:05:00.548Z,99946.91
2024-02-29T22:07:27.167Z,99939.09
2024-02-29T22:09:53.756Z,99937.44
2024-02-29T22:12:20.464Z,99931.28
2024-02-29T22:14:47.042Z,99929.06
2024-02-29T22:17:13.632Z,99930.22
2024-02-29T22:19:40.222Z,99917.34
2024-02-29T22:22:07.279Z,99921.72
2024-02-29T22:24:34.983Z,99923.88
2024-02-29T22:27:01.972Z,99914.81
2024-02-29T22:29:29.290Z,99921.91
2024-02-29T22:31:55.821Z,99914.84
2024-02-29T22:34:22.965Z,99920.94
2024-02-29T22:36:49.696Z,99903.84
2024-02-29T22:39:16.244Z,99905.41
2024-02-29T22:41:52.650Z,99906.63
2024-02-29T22:44:23.800Z,99898.97
2024-02-29T22:46:50.379Z,99899.94
2024-02-29T22:49:16.943Z,99902.56
2024-02-29T22:51:43.616Z,99901.28
2024-02-29T22:54:10.130Z,99902.72
2024-02-29T22:56:37.121Z,99896.34
2024-02-29T22:59:03.672Z,99896.47
2024-02-29T23:01:30.299Z,99893.16
2024-02-29T23:03:56.934Z,99896.22
2024-02-29T23:06:23.624Z,99888.69
2024-02-29T23:08:50.130Z,99888.53
2024-02-29T23:11:17.480Z,99896.84
2024-02-29T23:13:44.063Z,99898.34
2024-02-29T23:16:10.624Z,99905.09
2024-02-29T23:18:37.173Z,99896.69
2024-02-29T23:21:03.833Z,99904.72
2024-02-29T23:23:30.380Z,99903.19
2024-02-29T23:25:57.208Z,99883.13
2024-02-29T23:28:23.794Z,99887.25
2024-02-29T23:30:50.412Z,99884.31
2024-02-29T23:33:16.992Z,99889.50
2024-02-29T23:35:43.520Z,99885.00
2024-02-29T23:38:10.620Z,99883.00
2024-02-29T23:40:37.252Z,99882.16
2024-02-29T23:43:04.167Z,99870.28
2024-02-29T23:45:30.746Z,99865.28
2024-02-29T23:47:57.359Z,99863.63
2024-02-29T23:50:25.793Z,99861.28
2024-02-29T23:52:52.518Z,99859.84
2024-02-29T23:55:19.207Z,99854.66
2024-02-29T23:57:45.881Z,99855.25
